sensor_id;sensor_type;location;lat;lon;timestamp;pressure;altitude;pressure_sealevel;temperature;humidity
29197;BME280;62796;42.654;23.316;2023-01-26T00:02:16;95014.53;;;2.22;57.46
29197;BME280;62796;42.654;23.316;2023-01-26T00:04:42;95019.66;;;2.20;57.75
29197;BME280;62796;42.654;23.316;2023-01-26T00:07:07;95012.81;;;2.12;57.57
29197;BME280;62796;42.654;23.316;2023-01-26T00:09:33;95018.09;;;2.19;58.12
29197;BME280;62796;42.654;23.316;2023-01-26T00:11:58;95008.44;;;2.14;57.69
29197;BME280;62796;42.654;23.316;2023-01-26T00:14:23;95022.47;;;2.16;58.52
29197;BME280;62796;42.654;23.316;2023-01-26T00:16:49;95024.34;;;2.19;58.03
29197;BME280;62796;42.654;23.316;2023-01-26T00:19:14;95024.22;;;2.27;57.15
29197;BME280;62796;42.654;23.316;2023-01-26T00:21:39;95024.78;;;2.38;57.01
29197;BME280;62796;42.654;23.316;2023-01-26T00:24:05;95028.06;;;2.29;56.51
29197;BME280;62796;42.654;23.316;2023-01-26T00:26:30;95019.88;;;2.29;56.54
29197;BME280;62796;42.654;23.316;2023-01-26T00:28:56;95020.00;;;2.22;56.85
29197;BME280;62796;42.654;23.316;2023-01-26T00:31:25;95008.84;;;2.13;56.97
29197;BME280;62796;42.654;23.316;2023-01-26T00:33:52;94992.09;;;1.91;57.11
29197;BME280;62796;42.654;23.316;2023-01-26T00:36:18;94996.66;;;1.98;57.03
29197;BME280;62796;42.654;23.316;2023-01-26T00:38:44;94994.97;;;2.04;57.34
29197;BME280;62796;42.654;23.316;2023-01-26T00:41:09;94986.38;;;2.05;57.11
29197;BME280;62796;42.654;23.316;2023-01-26T00:43:58;94992.53;;;2.09;57.42
29197;BME280;62796;42.654;23.316;2023-01-26T00:46:23;94994.97;;;2.04;57.28
29197;BME280;62796;42.654;23.316;2023-01-26T00:48:49;94990.84;;;1.96;57.26
29197;BME280;62796;42.654;23.316;2023-01-26T00:51:14;94992.41;;;1.97;57.29
29197;BME280;62796;42.654;23.316;2023-01-26T00:53:40;94988.22;;;1.89;57.76
29197;BME280;62796;42.654;23.316;2023-01-26T00:56:05;94985.22;;;1.83;57.72
29197;BME280;62796;42.654;23.316;2023-01-26T00:58:31;94977.31;;;1.89;57.57
29197;BME280;62796;42.654;23.316;2023-01-26T01:00:56;94985.09;;;1.90;57.38
29197;BME280;62796;42.654;23.316;2023-01-26T01:03:22;94976.63;;;1.85;57.61
29197;BME280;62796;42.654;23.316;2023-01-26T01:05:47;94961.06;;;1.82;58.11
29197;BME280;62796;42.654;23.316;2023-01-26T01:08:12;94977.94;;;1.77;57.89
29197;BME280;62796;42.654;23.316;2023-01-26T01:10:38;94981.75;;;1.59;58.19
29197;BME280;62796;42.654;23.316;2023-01-26T01:13:03;94980.91;;;1.62;58.51
29197;BME280;62796;42.654;23.316;2023-01-26T01:15:29;94983.31;;;1.60;57.78
29197;BME280;62796;42.654;23.316;2023-01-26T01:17:54;94957.91;;;1.63;57.76
29197;BME280;62796;42.654;23.316;2023-01-26T01:20:19;94959.41;;;1.64;58.30
29197;BME280;62796;42.654;23.316;2023-01-26T01:22:45;94962.16;;;1.64;57.76
29197;BME280;62796;42.654;23.316;2023-01-26T01:25:10;94962.97;;;1.61;57.56
29197;BME280;62796;42.654;23.316;2023-01-26T01:27:36;94958.59;;;1.67;57.43
29197;BME280;62796;42.654;23.316;2023-01-26T01:30:02;94961.25;;;1.71;57.43
29197;BME280;62796;42.654;23.316;2023-01-26T01:32:33;94963.59;;;1.73;57.10
29197;BME280;62796;42.654;23.316;2023-01-26T01:34:59;94935.00;;;1.57;57.10
29197;BME280;62796;42.654;23.316;2023-01-26T01:37:24;94956.00;;;1.80;57.04
29197;BME280;62796;42.654;23.316;2023-01-26T01:39:50;94958.19;;;1.69;56.85
29197;BME280;62796;42.654;23.316;2023-01-26T01:42:15;94948.38;;;1.72;56.98
29197;BME280;62796;42.654;23.316;2023-01-26T01:44:41;94957.13;;;1.83;56.89
29197;BME280;62796;42.654;23.316;2023-01-26T01:47:20;94958.13;;;1.92;56.49
29197;BME280;62796;42.654;23.316;2023-01-26T01:49:49;94955.84;;;1.91;56.42
29197;BME280;62796;42.654;23.316;2023-01-26T01:52:21;94952.25;;;1.94;56.24
29197;BME280;62796;42.654;23.316;2023-01-26T01:55:08;94954.50;;;1.99;56.33
29197;BME280;62796;42.654;23.316;2023-01-26T01:57:47;94950.66;;;1.96;55.74
29197;BME280;62796;42.654;23.316;2023-01-26T02:00:20;94945.59;;;1.95;55.74
29197;BME280;62796;42.654;23.316;2023-01-26T02:02:55;94949.44;;;1.97;55.70
29197;BME280;62796;42.654;23.316;2023-01-26T02:05:56;94951.59;;;1.86;55.70
29197;BME280;62796;42.654;23.316;2023-01-26T02:08:29;94945.75;;;1.88;55.61
29197;BME280;62796;42.654;23.316;2023-01-26T02:10:58;94937.53;;;1.88;56.07
29197;BME280;62796;42.654;23.316;2023-01-26T02:13:27;94928.97;;;1.86;55.58
29197;BME280;62796;42.654;23.316;2023-01-26T02:15:53;94913.53;;;1.79;55.69
29197;BME280;62796;42.654;23.316;2023-01-26T02:18:19;94922.63;;;1.92;55.74
29197;BME280;62796;42.654;23.316;2023-01-26T02:20:55;94915.91;;;1.97;55.54
29197;BME280;62796;42.654;23.316;2023-01-26T02:28:33;94890.06;;;1.82;55.94
29197;BME280;62796;42.654;23.316;2023-01-26T02:30:59;94898.59;;;1.84;56.08
29197;BME280;62796;42.654;23.316;2023-01-26T02:33:27;94893.63;;;1.79;56.46
29197;BME280;62796;42.654;23.316;2023-01-26T02:35:53;94884.47;;;1.69;56.71
29197;BME280;62796;42.654;23.316;2023-01-26T02:38:20;94902.22;;;1.77;56.69
29197;BME280;62796;42.654;23.316;2023-01-26T02:40:54;94901.00;;;1.82;56.51
29197;BME280;62796;42.654;23.316;2023-01-26T02:43:23;94880.75;;;1.79;56.12
29197;BME280;62796;42.654;23.316;2023-01-26T02:45:49;94895.09;;;1.83;56.49
29197;BME280;62796;42.654;23.316;2023-01-26T02:48:15;94883.66;;;1.88;56.04
29197;BME280;62796;42.654;23.316;2023-01-26T02:51:00;94868.22;;;1.82;56.34
29197;BME280;62796;42.654;23.316;2023-01-26T02:53:25;94883.84;;;1.81;56.24
29197;BME280;62796;42.654;23.316;2023-01-26T02:55:51;94873.19;;;1.87;56.37
29197;BME280;62796;42.654;23.316;2023-01-26T02:58:16;94871.63;;;1.86;56.28
29197;BME280;62796;42.654;23.316;2023-01-26T03:00:42;94857.00;;;1.56;56.56
29197;BME280;62796;42.654;23.316;2023-01-26T03:03:13;94864.16;;;1.70;56.67
29197;BME280;62796;42.654;23.316;2023-01-26T03:05:39;94859.94;;;1.65;56.67
29197;BME280;62796;42.654;23.316;2023-01-26T03:08:05;94864.69;;;1.61;57.35
29197;BME280;62796;42.654;23.316;2023-01-26T03:10:31;94862.53;;;1.73;56.60
29197;BME280;62796;42.654;23.316;2023-01-26T03:12:57;94847.06;;;1.66;56.86
29197;BME280;62796;42.654;23.316;2023-01-26T03:15:23;94848.13;;;1.72;56.69
29197;BME280;62796;42.654;23.316;2023-01-26T03:18:17;94841.75;;;1.79;56.55
29197;BME280;62796;42.654;23.316;2023-01-26T03:21:04;94817.66;;;1.74;56.44
29197;BME280;62796;42.654;23.316;2023-01-26T03:23:48;94835.19;;;1.76;56.17
29197;BME280;62796;42.654;23.316;2023-01-26T03:26:33;94831.16;;;1.81;56.39
29197;BME280;62796;42.654;23.316;2023-01-26T03:29:17;94821.44;;;1.80;56.31
29197;BME280;62796;42.654;23.316;2023-01-26T03:31:42;94830.31;;;1.84;56.11
29197;BME280;62796;42.654;23.316;2023-01-26T03:34:08;94823.81;;;1.78;56.46
29197;BME280;62796;42.654;23.316;2023-01-26T03:36:33;94815.56;;;1.61;56.46
29197;BME280;62796;42.654;23.316;2023-01-26T03:38:58;94824.78;;;1.67;56.90
29197;BME280;62796;42.654;23.316;2023-01-26T03:41:24;94825.50;;;1.72;56.36
29197;BME280;62796;42.654;23.316;2023-01-26T03:44:08;94822.06;;;1.67;56.57
29197;BME280;62796;42.654;23.316;2023-01-26T03:46:51;94820.88;;;1.68;56.24
29197;BME280;62796;42.654;23.316;2023-01-26T03:49:35;94817.09;;;1.62;56.20
29197;BME280;62796;42.654;23.316;2023-01-26T03:52:19;94815.41;;;1.68;56.61
29197;BME280;62796;42.654;23.316;2023-01-26T03:55:04;94809.25;;;1.64;56.13
29197;BME280;62796;42.654;23.316;2023-01-26T03:57:48;94812.13;;;1.77;55.77
29197;BME280;62796;42.654;23.316;2023-01-26T04:00:13;94818.94;;;1.69;55.97
29197;BME280;62796;42.654;23.316;2023-01-26T04:02:40;94807.94;;;1.53;56.22
29197;BME280;62796;42.654;23.316;2023-01-26T04:05:24;94805.41;;;1.62;56.21
29197;BME280;62796;42.654;23.316;2023-01-26T04:08:08;94801.44;;;1.66;56.11
29197;BME280;62796;42.654;23.316;2023-01-26T04:10:52;94795.97;;;1.66;55.84
29197;BME280;62796;42.654;23.316;2023-01-26T04:13:18;94802.47;;;1.73;56.09
29197;BME280;62796;42.654;23.316;2023-01-26T04:16:03;94797.34;;;1.75;55.54
29197;BME280;62796;42.654;23.316;2023-01-26T04:18:47;94781.66;;;1.79;55.94
29197;BME280;62796;42.654;23.316;2023-01-26T04:21:31;94777.13;;;1.72;56.16
29197;BME280;62796;42.654;23.316;2023-01-26T04:24:01;94762.38;;;1.70;56.20
29197;BME280;62796;42.654;23.316;2023-01-26T04:26:30;94755.88;;;1.80;56.07
29197;BME280;62796;42.654;23.316;2023-01-26T04:29:04;94752.75;;;1.81;56.26
29197;BME280;62796;42.654;23.316;2023-01-26T04:31:30;94758.97;;;1.82;55.79
29197;BME280;62796;42.654;23.316;2023-01-26T04:33:55;94757.69;;;1.70;56.04
29197;BME280;62796;42.654;23.316;2023-01-26T04:36:21;94755.22;;;1.76;56.03
29197;BME280;62796;42.654;23.316;2023-01-26T04:38:46;94750.75;;;1.65;55.91
29197;BME280;62796;42.654;23.316;2023-01-26T04:41:13;94754.50;;;1.72;55.32
29197;BME280;62796;42.654;23.316;2023-01-26T04:43:39;94750.75;;;1.65;55.58
29197;BME280;62796;42.654;23.316;2023-01-26T04:46:06;94766.72;;;1.83;55.45
29197;BME280;62796;42.654;23.316;2023-01-26T04:48:33;94765.44;;;1.72;55.40
29197;BME280;62796;42.654;23.316;2023-01-26T04:51:01;94761.84;;;1.75;55.88
29197;BME280;62796;42.654;23.316;2023-01-26T04:53:27;94769.91;;;1.82;54.42
29197;BME280;62796;42.654;23.316;2023-01-26T04:55:54;94770.63;;;1.66;54.48
29197;BME280;62796;42.654;23.316;2023-01-26T04:58:19;94769.34;;;1.71;54.49
29197;BME280;62796;42.654;23.316;2023-01-26T05:00:52;94765.34;;;1.75;54.71
29197;BME280;62796;42.654;23.316;2023-01-26T05:03:18;94763.47;;;1.72;54.96
29197;BME280;62796;42.654;23.316;2023-01-26T05:05:44;94774.66;;;1.78;55.00
29197;BME280;62796;42.654;23.316;2023-01-26T05:08:12;94765.34;;;1.75;54.82
29197;BME280;62796;42.654;23.316;2023-01-26T05:10:37;94760.66;;;1.76;54.97
29197;BME280;62796;42.654;23.316;2023-01-26T05:13:03;94750.75;;;1.65;54.65
29197;BME280;62796;42.654;23.316;2023-01-26T05:15:28;94755.34;;;1.68;54.22
29197;BME280;62796;42.654;23.316;2023-01-26T05:17:53;94764.72;;;1.67;54.69
29197;BME280;62796;42.654;23.316;2023-01-26T05:20:19;94761.00;;;1.78;55.09
29197;BME280;62796;42.654;23.316;2023-01-26T05:22:44;94753.53;;;1.82;55.09
29197;BME280;62796;42.654;23.316;2023-01-26T05:25:09;94749.19;;;2.00;55.13
29197;BME280;62796;42.654;23.316;2023-01-26T05:27:35;94746.34;;;1.88;54.77
29197;BME280;62796;42.654;23.316;2023-01-26T05:30:01;94752.34;;;1.99;54.49
29197;BME280;62796;42.654;23.316;2023-01-26T05:32:30;94753.72;;;2.07;54.22
29197;BME280;62796;42.654;23.316;2023-01-26T05:34:56;94745.03;;;2.12;54.03
29197;BME280;62796;42.654;23.316;2023-01-26T05:37:23;94742.28;;;2.12;54.16
29197;BME280;62796;42.654;23.316;2023-01-26T05:39:49;94742.56;;;2.17;53.41
29197;BME280;62796;42.654;23.316;2023-01-26T05:42:14;94760.38;;;2.22;53.56
29197;BME280;62796;42.654;23.316;2023-01-26T05:44:40;94741.78;;;2.17;53.72
29197;BME280;62796;42.654;23.316;2023-01-26T05:47:05;94756.63;;;2.16;53.41
29197;BME280;62796;42.654;23.316;2023-01-26T05:49:31;94736.28;;;2.01;53.86
29197;BME280;62796;42.654;23.316;2023-01-26T05:51:57;94754.06;;;2.09;54.76
29197;BME280;62796;42.654;23.316;2023-01-26T05:54:22;94755.84;;;2.15;53.83
29197;BME280;62796;42.654;23.316;2023-01-26T05:56:48;94759.78;;;2.14;53.89
29197;BME280;62796;42.654;23.316;2023-01-26T05:59:14;94747.41;;;2.10;54.18
29197;BME280;62796;42.654;23.316;2023-01-26T06:01:39;94761.75;;;2.14;53.67
29197;BME280;62796;42.654;23.316;2023-01-26T06:04:05;94756.03;;;2.08;53.29
29197;BME280;62796;42.654;23.316;2023-01-26T06:06:30;94755.97;;;2.12;53.63
29197;BME280;62796;42.654;23.316;2023-01-26T06:08:56;94741.69;;;2.20;53.75
29197;BME280;62796;42.654;23.316;2023-01-26T06:11:22;94744.84;;;2.19;53.64
29197;BME280;62796;42.654;23.316;2023-01-26T06:13:47;94748.28;;;2.23;53.78
29197;BME280;62796;42.654;23.316;2023-01-26T06:16:13;94738.53;;;2.22;53.50
29197;BME280;62796;42.654;23.316;2023-01-26T06:18:39;94738.53;;;2.22;53.40
29197;BME280;62796;42.654;23.316;2023-01-26T06:21:04;94741.09;;;2.29;53.64
29197;BME280;62796;42.654;23.316;2023-01-26T06:23:29;94744.50;;;2.33;53.12
29197;BME280;62796;42.654;23.316;2023-01-26T06:25:59;94741.34;;;2.35;53.30
29197;BME280;62796;42.654;23.316;2023-01-26T06:28:25;94734.94;;;2.25;53.28
29197;BME280;62796;42.654;23.316;2023-01-26T06:30:50;94735.28;;;2.27;53.11
29197;BME280;62796;42.654;23.316;2023-01-26T06:33:16;94720.09;;;2.26;53.58
29197;BME280;62796;42.654;23.316;2023-01-26T06:35:41;94735.63;;;2.29;53.34
29197;BME280;62796;42.654;23.316;2023-01-26T06:38:06;94718.88;;;2.27;53.29
29197;BME280;62796;42.654;23.316;2023-01-26T06:40:32;94721.97;;;2.29;53.45
29197;BME280;62796;42.654;23.316;2023-01-26T06:42:57;94722.06;;;2.42;53.14
29197;BME280;62796;42.654;23.316;2023-01-26T06:45:23;94723.81;;;2.48;53.02
29197;BME280;62796;42.654;23.316;2023-01-26T06:47:49;94727.78;;;2.47;52.62
29197;BME280;62796;42.654;23.316;2023-01-26T06:50:18;94717.16;;;2.49;53.02
29197;BME280;62796;42.654;23.316;2023-01-26T06:52:50;94729.03;;;2.59;52.58
29197;BME280;62796;42.654;23.316;2023-01-26T06:55:28;94720.38;;;2.60;52.65
29197;BME280;62796;42.654;23.316;2023-01-26T06:57:56;94729.44;;;2.57;53.17
29197;BME280;62796;42.654;23.316;2023-01-26T07:00:21;94704.34;;;2.46;53.02
29197;BME280;62796;42.654;23.316;2023-01-26T07:02:47;94717.66;;;2.60;52.71
29197;BME280;62796;42.654;23.316;2023-01-26T07:05:12;94713.00;;;2.45;53.44
29197;BME280;62796;42.654;23.316;2023-01-26T07:07:38;94715.28;;;2.46;53.31
29197;BME280;62796;42.654;23.316;2023-01-26T07:10:03;94708.53;;;2.51;53.30
29197;BME280;62796;42.654;23.316;2023-01-26T07:12:44;94697.69;;;2.47;53.12
29197;BME280;62796;42.654;23.316;2023-01-26T07:15:11;94704.34;;;2.46;53.52
29197;BME280;62796;42.654;23.316;2023-01-26T07:17:39;94711.78;;;2.46;53.55
29197;BME280;62796;42.654;23.316;2023-01-26T07:20:06;94697.19;;;2.36;53.67
29197;BME280;62796;42.654;23.316;2023-01-26T07:22:31;94699.81;;;2.40;53.71
29197;BME280;62796;42.654;23.316;2023-01-26T07:24:57;94704.97;;;2.38;53.91
29197;BME280;62796;42.654;23.316;2023-01-26T07:27:22;94691.63;;;2.40;53.85
29197;BME280;62796;42.654;23.316;2023-01-26T07:29:48;94695.13;;;2.40;53.78
29197;BME280;62796;42.654;23.316;2023-01-26T07:32:14;94698.03;;;2.49;53.81
29197;BME280;62796;42.654;23.316;2023-01-26T07:34:39;94693.59;;;2.39;53.68
29197;BME280;62796;42.654;23.316;2023-01-26T07:37:05;94695.75;;;2.48;53.60
29197;BME280;62796;42.654;23.316;2023-01-26T07:39:30;94684.69;;;2.51;53.30
29197;BME280;62796;42.654;23.316;2023-01-26T07:41:56;94692.28;;;2.60;53.09
29197;BME280;62796;42.654;23.316;2023-01-26T07:44:21;94675.88;;;2.60;53.15
29197;BME280;62796;42.654;23.316;2023-01-26T07:46:47;94682.09;;;2.60;53.21
29197;BME280;62796;42.654;23.316;2023-01-26T07:49:12;94684.13;;;2.72;52.86
29197;BME280;62796;42.654;23.316;2023-01-26T07:51:37;94686.53;;;2.70;52.79
29197;BME280;62796;42.654;23.316;2023-01-26T07:54:04;94688.41;;;2.73;52.99
29197;BME280;62796;42.654;23.316;2023-01-26T07:56:30;94692.47;;;2.82;52.54
29197;BME280;62796;42.654;23.316;2023-01-26T07:58:56;94691.53;;;2.88;52.78
29197;BME280;62796;42.654;23.316;2023-01-26T08:01:21;94688.84;;;3.01;53.13
29197;BME280;62796;42.654;23.316;2023-01-26T08:03:49;94699.78;;;3.01;52.14
29197;BME280;62796;42.654;23.316;2023-01-26T08:06:15;94676.22;;;2.91;52.67
29197;BME280;62796;42.654;23.316;2023-01-26T08:08:41;94684.25;;;2.98;52.44
29197;BME280;62796;42.654;23.316;2023-01-26T08:11:08;94682.06;;;3.05;52.08
29197;BME280;62796;42.654;23.316;2023-01-26T08:13:34;94670.34;;;3.05;52.34
29197;BME280;62796;42.654;23.316;2023-01-26T08:16:04;94685.75;;;2.99;51.99
29197;BME280;62796;42.654;23.316;2023-01-26T08:18:30;94670.97;;;2.96;52.28
29197;BME280;62796;42.654;23.316;2023-01-26T08:20:56;94675.69;;;2.96;52.29
29197;BME280;62796;42.654;23.316;2023-01-26T08:23:21;94685.09;;;2.95;52.20
29197;BME280;62796;42.654;23.316;2023-01-26T08:25:47;94672.44;;;3.01;52.31
29197;BME280;62796;42.654;23.316;2023-01-26T08:28:12;94670.47;;;3.01;51.97
29197;BME280;62796;42.654;23.316;2023-01-26T08:30:38;94671.03;;;3.09;51.80
29197;BME280;62796;42.654;23.316;2023-01-26T08:33:04;94653.41;;;3.10;51.91
29197;BME280;62796;42.654;23.316;2023-01-26T08:35:32;94672.22;;;3.08;51.42
29197;BME280;62796;42.654;23.316;2023-01-26T08:37:59;94651.53;;;3.07;51.60
29197;BME280;62796;42.654;23.316;2023-01-26T08:40:24;94656.16;;;3.10;51.75
29197;BME280;62796;42.654;23.316;2023-01-26T08:42:51;94644.53;;;3.06;51.54
29197;BME280;62796;42.654;23.316;2023-01-26T08:45:17;94661.50;;;3.01;51.77
29197;BME280;62796;42.654;23.316;2023-01-26T08:47:42;94651.78;;;3.12;51.58
29197;BME280;62796;42.654;23.316;2023-01-26T08:50:10;94652.53;;;3.13;51.76
29197;BME280;62796;42.654;23.316;2023-01-26T08:52:35;94667.31;;;3.15;51.36
29197;BME280;62796;42.654;23.316;2023-01-26T08:55:01;94655.69;;;3.11;51.37
29197;BME280;62796;42.654;23.316;2023-01-26T08:57:28;94668.41;;;3.18;51.13
29197;BME280;62796;42.654;23.316;2023-01-26T08:59:54;94655.94;;;3.17;51.17
29197;BME280;62796;42.654;23.316;2023-01-26T09:02:19;94656.59;;;3.21;51.08
29197;BME280;62796;42.654;23.316;2023-01-26T09:04:45;94648.19;;;3.28;50.85
29197;BME280;62796;42.654;23.316;2023-01-26T09:07:10;94649.94;;;3.22;51.14
29197;BME280;62796;42.654;23.316;2023-01-26T09:09:35;94657.06;;;3.32;50.76
29197;BME280;62796;42.654;23.316;2023-01-26T09:12:01;94661.97;;;3.24;50.90
29197;BME280;62796;42.654;23.316;2023-01-26T09:14:26;94654.44;;;3.28;51.13
29197;BME280;62796;42.654;23.316;2023-01-26T09:16:53;94653.44;;;3.35;50.70
29197;BME280;62796;42.654;23.316;2023-01-26T09:19:18;94650.28;;;3.37;50.74
29197;BME280;62796;42.654;23.316;2023-01-26T09:21:44;94647.09;;;3.38;50.65
29197;BME280;62796;42.654;23.316;2023-01-26T09:24:09;94648.31;;;3.37;50.69
29197;BME280;62796;42.654;23.316;2023-01-26T09:26:34;94638.25;;;3.34;50.77
29197;BME280;62796;42.654;23.316;2023-01-26T09:29:00;94636.38;;;3.31;50.98
29197;BME280;62796;42.654;23.316;2023-01-26T09:31:26;94619.81;;;3.34;50.51
29197;BME280;62796;42.654;23.316;2023-01-26T09:33:51;94615.59;;;3.46;50.75
29197;BME280;62796;42.654;23.316;2023-01-26T09:36:17;94610.22;;;3.43;50.25
29197;BME280;62796;42.654;23.316;2023-01-26T09:38:43;94608.88;;;3.34;50.78
29197;BME280;62796;42.654;23.316;2023-01-26T09:41:21;94611.59;;;3.34;51.10
29197;BME280;62796;42.654;23.316;2023-01-26T09:44:14;94625.19;;;3.38;50.83
29197;BME280;62796;42.654;23.316;2023-01-26T09:49:50;94616.66;;;3.36;50.88
29197;BME280;62796;42.654;23.316;2023-01-26T09:52:25;94597.91;;;3.34;51.17
29197;BME280;62796;42.654;23.316;2023-01-26T09:54:53;94605.03;;;3.32;51.50
29197;BME280;62796;42.654;23.316;2023-01-26T09:57:24;94593.69;;;3.46;51.48
29197;BME280;62796;42.654;23.316;2023-01-26T10:04:57;94600.34;;;3.58;50.82
29197;BME280;62796;42.654;23.316;2023-01-26T10:07:24;94582.59;;;3.50;50.68
29197;BME280;62796;42.654;23.316;2023-01-26T10:09:51;94596.94;;;3.66;50.82
29197;BME280;62796;42.654;23.316;2023-01-26T10:12:24;94596.94;;;3.66;50.80
29197;BME280;62796;42.654;23.316;2023-01-26T10:17:40;94572.88;;;3.61;50.42
29197;BME280;62796;42.654;23.316;2023-01-26T10:20:21;94567.72;;;3.63;50.15
29197;BME280;62796;42.654;23.316;2023-01-26T10:22:54;94543.94;;;3.60;50.94
29197;BME280;62796;42.654;23.316;2023-01-26T10:25:36;94553.34;;;3.59;50.70
29197;BME280;62796;42.654;23.316;2023-01-26T10:28:32;94540.75;;;3.62;50.65
29197;BME280;62796;42.654;23.316;2023-01-26T10:31:01;94529.03;;;3.61;50.89
29197;BME280;62796;42.654;23.316;2023-01-26T10:33:36;94520.28;;;3.41;50.95
29197;BME280;62796;42.654;23.316;2023-01-26T10:36:04;94516.13;;;3.49;51.37
29197;BME280;62796;42.654;23.316;2023-01-26T10:41:04;94500.69;;;3.55;51.07
29197;BME280;62796;42.654;23.316;2023-01-26T10:43:39;94489.84;;;3.52;50.75
29197;BME280;62796;42.654;23.316;2023-01-26T10:46:41;94488.75;;;3.49;51.32
29197;BME280;62796;42.654;23.316;2023-01-26T10:51:37;94487.00;;;3.43;51.19
29197;BME280;62796;42.654;23.316;2023-01-26T10:56:43;94466.09;;;3.49;50.79
29197;BME280;62796;42.654;23.316;2023-01-26T10:59:21;94456.97;;;3.64;50.97
29197;BME280;62796;42.654;23.316;2023-01-26T11:01:54;94453.00;;;3.65;50.84
29197;BME280;62796;42.654;23.316;2023-01-26T11:04:20;94447.47;;;3.78;50.18
29197;BME280;62796;42.654;23.316;2023-01-26T11:06:46;94442.19;;;3.83;50.09
29197;BME280;62796;42.654;23.316;2023-01-26T11:11:57;94405.47;;;3.59;50.42
29197;BME280;62796;42.654;23.316;2023-01-26T11:14:24;94426.72;;;3.89;50.23
29197;BME280;62796;42.654;23.316;2023-01-26T11:22:29;94399.56;;;3.82;50.20
29197;BME280;62796;42.654;23.316;2023-01-26T11:27:45;94408.19;;;3.94;50.11
29197;BME280;62796;42.654;23.316;2023-01-26T11:32:58;94416.59;;;3.99;49.85
29197;BME280;62796;42.654;23.316;2023-01-26T11:35:47;94408.97;;;3.94;49.93
29197;BME280;62796;42.654;23.316;2023-01-26T11:38:27;94384.09;;;3.88;50.12
29197;BME280;62796;42.654;23.316;2023-01-26T11:43:51;94388.66;;;3.91;50.24
29197;BME280;62796;42.654;23.316;2023-01-26T11:57:35;94384.72;;;3.92;50.32
29197;BME280;62796;42.654;23.316;2023-01-26T12:00:14;94378.38;;;3.96;50.78
29197;BME280;62796;42.654;23.316;2023-01-26T12:02:42;94373.84;;;4.02;50.43
29197;BME280;62796;42.654;23.316;2023-01-26T12:05:25;94368.94;;;3.97;50.56
29197;BME280;62796;42.654;23.316;2023-01-26T12:10:39;94366.75;;;3.91;50.76
29197;BME280;62796;42.654;23.316;2023-01-26T12:13:15;94367.66;;;3.88;51.20
29197;BME280;62796;42.654;23.316;2023-01-26T12:15:51;94349.81;;;3.84;51.35
29197;BME280;62796;42.654;23.316;2023-01-26T12:18:23;94339.06;;;3.89;51.53
29197;BME280;62796;42.654;23.316;2023-01-26T12:20:57;94336.56;;;3.82;51.64
29197;BME280;62796;42.654;23.316;2023-01-26T12:26:14;94325.34;;;3.89;51.41
29197;BME280;62796;42.654;23.316;2023-01-26T12:31:39;94329.44;;;3.85;51.72
29197;BME280;62796;42.654;23.316;2023-01-26T12:34:12;94322.91;;;3.91;51.62
29197;BME280;62796;42.654;23.316;2023-01-26T12:39:17;94308.22;;;3.76;52.47
29197;BME280;62796;42.654;23.316;2023-01-26T12:47:14;94311.59;;;3.80;52.70
29197;BME280;62796;42.654;23.316;2023-01-26T12:50:01;94307.13;;;3.74;53.08
29197;BME280;62796;42.654;23.316;2023-01-26T12:52:43;94309.69;;;3.68;53.19
29197;BME280;62796;42.654;23.316;2023-01-26T12:57:48;94308.00;;;3.92;52.60
29197;BME280;62796;42.654;23.316;2023-01-26T13:00:21;94298.59;;;3.94;53.05
29197;BME280;62796;42.654;23.316;2023-01-26T13:02:51;94293.53;;;3.92;53.38
29197;BME280;62796;42.654;23.316;2023-01-26T13:05:33;94293.00;;;3.97;52.80
29197;BME280;62796;42.654;23.316;2023-01-26T13:11:00;94284.84;;;3.84;53.27
29197;BME280;62796;42.654;23.316;2023-01-26T13:13:32;94290.31;;;3.84;53.51
29197;BME280;62796;42.654;23.316;2023-01-26T13:18:49;94298.16;;;3.73;54.29
29197;BME280;62796;42.654;23.316;2023-01-26T13:26:43;94285.09;;;3.77;53.93
29197;BME280;62796;42.654;23.316;2023-01-26T13:31:50;94278.34;;;3.69;54.46
29197;BME280;62796;42.654;23.316;2023-01-26T13:34:20;94282.19;;;3.72;54.17
29197;BME280;62796;42.654;23.316;2023-01-26T13:36:47;94282.66;;;3.79;54.58
29197;BME280;62796;42.654;23.316;2023-01-26T13:39:38;94283.81;;;3.91;53.92
29197;BME280;62796;42.654;23.316;2023-01-26T13:42:34;94278.47;;;3.87;54.01
29197;BME280;62796;42.654;23.316;2023-01-26T13:45:20;94289.81;;;3.77;54.52
29197;BME280;62796;42.654;23.316;2023-01-26T13:47:51;94282.66;;;3.79;54.32
29197;BME280;62796;42.654;23.316;2023-01-26T13:52:49;94271.81;;;3.98;53.99
29197;BME280;62796;42.654;23.316;2023-01-26T13:55:24;94279.31;;;4.06;53.39
29197;BME280;62796;42.654;23.316;2023-01-26T13:58:16;94275.56;;;4.22;53.02
29197;BME280;62796;42.654;23.316;2023-01-26T14:00:56;94267.53;;;4.27;52.78
29197;BME280;62796;42.654;23.316;2023-01-26T14:03:22;94255.97;;;4.32;52.62
29197;BME280;62796;42.654;23.316;2023-01-26T14:05:54;94246.41;;;4.46;52.26
29197;BME280;62796;42.654;23.316;2023-01-26T14:08:20;94249.47;;;4.57;52.20
29197;BME280;62796;42.654;23.316;2023-01-26T14:10:47;94248.06;;;4.34;52.42
29197;BME280;62796;42.654;23.316;2023-01-26T14:13:21;94231.63;;;4.43;51.59
29197;BME280;62796;42.654;23.316;2023-01-26T14:15:56;94244.63;;;4.61;51.39
29197;BME280;62796;42.654;23.316;2023-01-26T14:18:22;94237.03;;;4.65;51.13
29197;BME280;62796;42.654;23.316;2023-01-26T14:20:48;94224.22;;;4.62;50.80
29197;BME280;62796;42.654;23.316;2023-01-26T14:23:15;94239.78;;;4.74;50.47
29197;BME280;62796;42.654;23.316;2023-01-26T14:28:21;94226.06;;;4.74;50.44
29197;BME280;62796;42.654;23.316;2023-01-26T14:30:56;94226.06;;;4.74;50.17
29197;BME280;62796;42.654;23.316;2023-01-26T14:33:24;94216.75;;;4.81;50.00
29197;BME280;62796;42.654;23.316;2023-01-26T14:36:01;94222.72;;;4.88;50.24
29197;BME280;62796;42.654;23.316;2023-01-26T14:38:28;94213.56;;;4.82;49.51
29197;BME280;62796;42.654;23.316;2023-01-26T14:40:56;94218.94;;;4.95;49.17
29197;BME280;62796;42.654;23.316;2023-01-26T14:43:23;94214.94;;;4.87;49.25